createdAt,value
2022-10-20T00:05:21.024Z,4.03
2022-10-20T00:08:48.746Z,3.99
2022-10-20T00:12:15.772Z,3.98
2022-10-20T00:15:49.870Z,3.97
2022-10-20T00:19:16.701Z,3.95
2022-10-20T00:22:46.539Z,3.89
2022-10-20T00:26:15.885Z,3.87
2022-10-20T00:29:42.840Z,3.89
2022-10-20T00:33:10.100Z,3.90
2022-10-20T00:36:38.638Z,3.91
2022-10-20T00:40:06.256Z,3.90
2022-10-20T00:43:47.702Z,3.85
2022-10-20T00:47:18.843Z,3.81
2022-10-20T00:50:50.515Z,3.77
2022-10-20T00:54:21.097Z,3.75
2022-10-20T00:57:51.380Z,3.75
2022-10-20T01:01:20.450Z,3.70
2022-10-20T01:04:47.476Z,3.66
2022-10-20T01:08:13.768Z,3.61
2022-10-20T01:11:51.312Z,3.54
2022-10-20T01:15:42.438Z,3.47
2022-10-20T01:23:45.177Z,3.48
2022-10-20T01:27:40.218Z,3.47
2022-10-20T01:31:20.125Z,3.48
2022-10-20T01:34:53.164Z,3.50
2022-10-20T01:38:30.293Z,3.52
2022-10-20T01:42:02.072Z,3.51
2022-10-20T01:45:32.570Z,3.50
2022-10-20T01:49:00.884Z,3.50
2022-10-20T01:52:29.026Z,3.49
2022-10-20T01:55:59.146Z,3.46
2022-10-20T01:59:43.719Z,3.42
2022-10-20T02:03:34.191Z,3.35
2022-10-20T02:07:05.986Z,3.26
2022-10-20T02:10:42.466Z,3.19
2022-10-20T02:14:12.530Z,3.14
2022-10-20T02:17:43.435Z,3.06
2022-10-20T02:21:10.323Z,3.02
2022-10-20T02:24:39.369Z,2.98
2022-10-20T02:28:10.348Z,2.92
2022-10-20T02:31:36.897Z,2.89
2022-10-20T02:35:06.779Z,2.81
2022-10-20T02:38:33.869Z,2.77
2022-10-20T02:42:00.341Z,2.75
2022-10-20T02:45:26.850Z,2.74
2022-10-20T02:48:53.359Z,2.76
2022-10-20T02:52:20.263Z,2.77
2022-10-20T02:55:47.143Z,2.77
2022-10-20T02:59:17.050Z,2.78
2022-10-20T03:02:43.671Z,2.77
2022-10-20T03:06:15.878Z,2.78
2022-10-20T03:09:44.374Z,2.80
2022-10-20T03:13:11.427Z,2.79
2022-10-20T03:16:37.786Z,2.74
2022-10-20T03:20:05.278Z,2.68
2022-10-20T03:23:31.617Z,2.63
2022-10-20T03:26:58.260Z,2.58
2022-10-20T03:30:25.251Z,2.55
2022-10-20T03:33:51.794Z,2.51
2022-10-20T03:37:18.416Z,2.46
2022-10-20T03:40:45.123Z,2.38
2022-10-20T03:44:12.874Z,2.34
2022-10-20T03:47:39.717Z,2.32
2022-10-20T03:51:07.699Z,2.27
2022-10-20T03:54:36.789Z,2.18
2022-10-20T03:58:03.643Z,2.18
2022-10-20T04:01:34.035Z,2.17
2022-10-20T04:05:00.589Z,2.18
2022-10-20T04:08:27.247Z,2.20
2022-10-20T04:11:53.889Z,2.26
2022-10-20T04:15:20.677Z,2.32
2022-10-20T04:18:47.651Z,2.34
2022-10-20T04:22:14.911Z,2.37
2022-10-20T04:25:47.797Z,2.38
2022-10-20T04:29:15.888Z,2.37
2022-10-20T04:32:42.942Z,2.34
2022-10-20T04:36:13.572Z,2.28
2022-10-20T04:39:39.974Z,2.25
2022-10-20T04:43:06.861Z,2.21
2022-10-20T04:46:33.869Z,2.18
2022-10-20T04:50:00.109Z,2.13
2022-10-20T04:53:26.631Z,2.10
2022-10-20T04:56:53.068Z,2.05
2022-10-20T05:00:20.222Z,2.01
2022-10-20T05:03:47.348Z,1.97
2022-10-20T05:07:13.938Z,1.95
2022-10-20T05:10:41.007Z,1.90
2022-10-20T05:14:07.905Z,1.88
2022-10-20T05:17:35.034Z,1.87
2022-10-20T05:21:08.928Z,1.87
2022-10-20T05:24:36.166Z,1.89
2022-10-20T05:28:03.084Z,1.97
2022-10-20T05:31:29.773Z,2.05
2022-10-20T05:34:56.511Z,2.09
2022-10-20T05:38:23.053Z,2.14
2022-10-20T05:41:49.811Z,2.17
2022-10-20T05:45:16.983Z,2.19
2022-10-20T05:48:43.597Z,2.16
2022-10-20T05:52:10.353Z,2.10
2022-10-20T05:55:37.410Z,2.02
2022-10-20T05:59:03.997Z,1.97
2022-10-20T06:02:30.573Z,1.96
2022-10-20T06:06:01.554Z,1.97
2022-10-20T06:09:28.328Z,1.98
2022-10-20T06:12:55.177Z,1.99
2022-10-20T06:16:23.627Z,2.02
2022-10-20T06:19:50.138Z,2.03
2022-10-20T06:23:16.962Z,2.04
2022-10-20T06:26:44.614Z,2.08
2022-10-20T06:30:13.984Z,2.14
2022-10-20T06:33:40.960Z,2.20
2022-10-20T06:37:07.576Z,2.29
2022-10-20T06:40:36.622Z,2.38
2022-10-20T06:44:03.719Z,2.50
2022-10-20T06:47:32.794Z,2.63
2022-10-20T06:51:02.070Z,2.74
2022-10-20T06:54:28.729Z,2.84
2022-10-20T06:57:58.560Z,2.91
2022-10-20T07:01:27.501Z,2.98
2022-10-20T07:04:54.373Z,3.01
2022-10-20T07:08:21.106Z,3.04
2022-10-20T07:11:51.949Z,3.08
2022-10-20T07:15:19.728Z,3.10
2022-10-20T07:18:47.909Z,3.14
2022-10-20T07:22:15.577Z,3.19
2022-10-20T07:25:42.308Z,3.27
2022-10-20T07:29:09.313Z,3.34
2022-10-20T07:32:36.059Z,3.42
2022-10-20T07:36:03.310Z,3.52
2022-10-20T07:39:30.704Z,3.64
2022-10-20T07:42:57.793Z,3.77
2022-10-20T07:46:25.725Z,3.91
2022-10-20T07:49:53.395Z,4.07
2022-10-20T07:53:21.162Z,4.24
2022-10-20T07:56:48.039Z,4.43
2022-10-20T08:00:16.310Z,4.62
2022-10-20T08:03:43.158Z,4.79
2022-10-20T08:07:09.837Z,4.97
2022-10-20T08:10:36.690Z,5.13
2022-10-20T08:14:03.947Z,5.26
2022-10-20T08:17:33.610Z,5.38
2022-10-20T08:21:12.631Z,5.50
2022-10-20T08:24:44.237Z,5.62
2022-10-20T08:28:12.169Z,5.72
2022-10-20T08:31:39.019Z,5.81
2022-10-20T08:35:06.305Z,5.91
2022-10-20T08:38:33.532Z,6.01
2022-10-20T08:42:09.553Z,6.10
2022-10-20T08:45:38.528Z,6.21
2022-10-20T08:49:08.818Z,6.34
2022-10-20T08:52:36.444Z,6.49
2022-10-20T08:56:03.662Z,6.67
2022-10-20T08:59:39.264Z,6.86
2022-10-20T09:03:19.261Z,7.05
2022-10-20T09:06:49.998Z,7.26
2022-10-20T09:10:25.958Z,7.46
2022-10-20T09:13:53.034Z,7.64
2022-10-20T09:17:20.332Z,7.82
2022-10-20T09:20:52.656Z,8.00
2022-10-20T09:24:31.378Z,8.15
2022-10-20T09:27:58.489Z,8.30
2022-10-20T09:31:33.507Z,8.39
2022-10-20T09:35:19.938Z,8.51
2022-10-20T09:38:49.133Z,8.60
2022-10-20T09:42:20.859Z,8.69
2022-10-20T09:45:54.907Z,8.75
2022-10-20T09:49:30.270Z,8.87
2022-10-20T09:53:00.252Z,8.97
2022-10-20T09:56:30.174Z,9.03
2022-10-20T10:00:01.381Z,9.12
2022-10-20T10:03:45.293Z,9.20
2022-10-20T10:07:33.366Z,9.39
2022-10-20T10:11:15.548Z,9.52
2022-10-20T10:14:55.429Z,9.63
2022-10-20T10:18:25.763Z,9.73
2022-10-20T10:21:56.818Z,9.86
2022-10-20T10:25:27.868Z,9.98
2022-10-20T10:29:00.910Z,10.11
2022-10-20T10:32:30.151Z,10.27
2022-10-20T10:35:57.526Z,10.38
2022-10-20T10:39:25.234Z,10.47
2022-10-20T10:43:13.581Z,10.58
2022-10-20T10:50:32.893Z,10.87
2022-10-20T10:54:12.369Z,10.98
2022-10-20T10:57:53.422Z,11.13
2022-10-20T11:01:59.226Z,11.24
2022-10-20T11:05:56.136Z,11.37
2022-10-20T11:09:33.286Z,11.51
2022-10-20T11:13:26.164Z,11.62
2022-10-20T11:17:07.214Z,11.80
2022-10-20T11:20:40.059Z,11.90
2022-10-20T11:24:25.435Z,11.98
2022-10-20T11:27:52.647Z,12.11
2022-10-20T11:31:27.928Z,12.23
2022-10-20T11:35:04.767Z,12.28
2022-10-20T11:38:37.727Z,12.44
2022-10-20T11:42:14.229Z,12.56
2022-10-20T11:45:49.322Z,12.68
2022-10-20T11:49:19.697Z,12.74
2022-10-20T11:53:06.274Z,12.76
2022-10-20T11:56:57.835Z,12.81
2022-10-20T12:05:06.403Z,13.14
2022-10-20T12:08:54.207Z,13.21
2022-10-20T12:12:27.195Z,13.34
2022-10-20T12:15:54.958Z,13.48
2022-10-20T12:19:24.003Z,13.63
2022-10-20T12:22:52.651Z,13.74
2022-10-20T12:27:04.903Z,13.76
2022-10-20T12:30:46.089Z,13.78
2022-10-20T12:34:25.735Z,13.86
2022-10-20T12:38:01.803Z,14.00
2022-10-20T12:41:34.096Z,14.10
2022-10-20T12:45:07.593Z,14.25
2022-10-20T12:48:42.419Z,14.28
2022-10-20T12:52:18.620Z,14.43
2022-10-20T12:55:48.426Z,14.57
2022-10-20T12:59:39.453Z,14.69
2022-10-20T13:03:53.096Z,14.77
2022-10-20T13:07:58.732Z,14.87
2022-10-20T13:11:46.364Z,14.98
2022-10-20T13:15:19.239Z,15.04
2022-10-20T13:18:50.913Z,15.01
2022-10-20T13:22:38.181Z,14.92
2022-10-20T13:26:17.231Z,14.84
2022-10-20T13:29:44.611Z,14.78
2022-10-20T13:37:22.578Z,14.63
2022-10-20T13:41:02.612Z,14.66
2022-10-20T13:44:37.964Z,14.62
2022-10-20T13:48:16.683Z,14.55
2022-10-20T13:51:48.927Z,14.43
2022-10-20T13:55:22.652Z,14.19
2022-10-20T13:59:03.096Z,13.95
2022-10-20T14:02:32.637Z,13.64
2022-10-20T14:06:00.580Z,13.42
2022-10-20T14:09:28.159Z,13.22
2022-10-20T14:12:56.978Z,13.04
2022-10-20T14:16:29.553Z,12.87
2022-10-20T14:20:19.359Z,12.69
2022-10-20T14:23:51.103Z,12.54
2022-10-20T14:27:23.013Z,12.43
2022-10-20T14:30:51.047Z,12.32
2022-10-20T14:34:28.444Z,12.24
2022-10-20T14:37:59.822Z,12.17
2022-10-20T14:41:32.476Z,12.01
2022-10-20T14:45:04.383Z,11.93
2022-10-20T14:48:38.586Z,11.89
2022-10-20T14:52:11.146Z,11.86
2022-10-20T14:55:43.025Z,11.76
2022-10-20T14:59:19.179Z,11.65
2022-10-20T15:02:56.385Z,11.53
2022-10-20T15:06:23.277Z,11.41
2022-10-20T15:09:51.991Z,11.29
2022-10-20T15:13:31.007Z,11.15
2022-10-20T15:16:57.947Z,11.04
2022-10-20T15:20:42.251Z,10.91
2022-10-20T15:24:09.033Z,10.79
2022-10-20T15:27:43.682Z,10.64
2022-10-20T15:31:22.003Z,10.50
2022-10-20T15:34:48.863Z,10.35
2022-10-20T15:38:16.234Z,10.20
2022-10-20T15:41:43.351Z,10.08
2022-10-20T15:45:18.810Z,9.94
2022-10-20T15:48:46.513Z,9.79
2022-10-20T15:52:14.785Z,9.67
2022-10-20T15:55:43.566Z,9.51
2022-10-20T15:59:10.719Z,9.37
2022-10-20T16:02:37.834Z,9.26
2022-10-20T16:06:06.424Z,9.17
2022-10-20T16:09:33.559Z,9.11
2022-10-20T16:13:01.075Z,9.04
2022-10-20T16:16:28.267Z,8.98
2022-10-20T16:19:56.115Z,8.93
2022-10-20T16:23:23.382Z,8.89
2022-10-20T16:26:50.623Z,8.86
2022-10-20T16:30:17.805Z,8.81
2022-10-20T16:33:45.348Z,8.72
2022-10-20T16:37:12.461Z,8.60
2022-10-20T16:40:40.401Z,8.45
2022-10-20T16:44:11.030Z,8.30
2022-10-20T16:47:39.679Z,8.20
2022-10-20T16:51:10.461Z,8.07
2022-10-20T16:58:08.226Z,7.93
2022-10-20T17:01:39.906Z,7.83
2022-10-20T17:05:09.444Z,7.74
2022-10-20T17:08:37.559Z,7.68
2022-10-20T17:12:04.660Z,7.59
2022-10-20T17:15:32.345Z,7.50
2022-10-20T17:19:01.230Z,7.45
2022-10-20T17:22:28.375Z,7.44
2022-10-20T17:26:04.043Z,7.44
2022-10-20T17:29:31.174Z,7.46
2022-10-20T17:32:57.797Z,7.48
2022-10-20T17:36:27.531Z,7.50
2022-10-20T17:39:54.882Z,7.51
2022-10-20T17:43:22.076Z,7.51
2022-10-20T17:46:49.268Z,7.49
2022-10-20T17:50:18.210Z,7.48
2022-10-20T17:53:48.681Z,7.44
2022-10-20T17:57:15.914Z,7.38
2022-10-20T18:00:56.121Z,7.31
2022-10-20T18:04:24.331Z,7.23
2022-10-20T18:07:52.821Z,7.18
2022-10-20T18:11:22.727Z,7.11
2022-10-20T18:14:49.801Z,7.04
2022-10-20T18:18:17.014Z,6.97
2022-10-20T18:21:45.804Z,6.91
2022-10-20T18:25:15.018Z,6.84
2022-10-20T18:28:45.845Z,6.78
2022-10-20T18:32:16.914Z,6.73
2022-10-20T18:35:49.743Z,6.70
2022-10-20T18:39:18.049Z,6.69
2022-10-20T18:42:52.161Z,6.69
2022-10-20T18:46:23.524Z,6.72
2022-10-20T18:49:54.643Z,6.76
2022-10-20T18:53:25.528Z,6.79
2022-10-20T18:56:53.696Z,6.82
2022-10-20T19:00:21.441Z,6.85
2022-10-20T19:03:51.793Z,6.85
2022-10-20T19:07:19.265Z,6.82
2022-10-20T19:10:46.773Z,6.78
2022-10-20T19:14:15.577Z,6.71
2022-10-20T19:17:45.204Z,6.65
2022-10-20T19:21:13.118Z,6.61
2022-10-20T19:24:42.038Z,6.55
2022-10-20T19:28:13.847Z,6.49
2022-10-20T19:31:45.317Z,6.42
2022-10-20T19:35:13.931Z,6.37
2022-10-20T19:38:43.600Z,6.33
2022-10-20T19:42:18.266Z,6.29
2022-10-20T19:45:49.893Z,6.26
2022-10-20T19:49:19.799Z,6.21
2022-10-20T19:52:48.257Z,6.23
2022-10-20T19:56:19.590Z,6.26
2022-10-20T19:59:50.362Z,6.28
2022-10-20T20:03:24.440Z,6.31
2022-10-20T20:06:53.196Z,6.35
2022-10-20T20:10:22.885Z,6.38
2022-10-20T20:13:51.426Z,6.39
2022-10-20T20:17:20.260Z,6.41
2022-10-20T20:20:50.253Z,6.39
2022-10-20T20:24:18.090Z,6.35
2022-10-20T20:27:45.602Z,6.33
2022-10-20T20:31:14.129Z,6.28
2022-10-20T20:34:42.074Z,6.24
2022-10-20T20:38:09.706Z,6.19
2022-10-20T20:41:38.397Z,6.15
2022-10-20T20:45:08.675Z,6.10
2022-10-20T20:48:38.806Z,6.05
2022-10-20T20:52:07.137Z,6.02
2022-10-20T20:55:41.966Z,5.99
2022-10-20T20:59:09.523Z,5.97
2022-10-20T21:02:43.549Z,5.96
2022-10-20T21:07:01.139Z,5.99
2022-10-20T21:10:36.662Z,6.02
2022-10-20T21:18:25.049Z,6.12
2022-10-20T21:22:15.456Z,6.13
2022-10-20T21:25:51.248Z,6.12
2022-10-20T21:29:27.318Z,6.11
2022-10-20T21:32:57.903Z,6.08
2022-10-20T21:36:33.276Z,6.03
2022-10-20T21:40:01.204Z,6.01
2022-10-20T21:43:30.173Z,5.95
2022-10-20T21:46:58.121Z,5.90
2022-10-20T21:50:25.804Z,5.82
2022-10-20T21:53:56.140Z,5.74
2022-10-20T21:57:23.892Z,5.70
2022-10-20T22:00:54.702Z,5.66
2022-10-20T22:04:25.503Z,5.64
2022-10-20T22:07:54.021Z,5.63
2022-10-20T22:11:26.344Z,5.61
2022-10-20T22:14:54.442Z,5.62
2022-10-20T22:18:26.890Z,5.65
2022-10-20T22:25:26.436Z,5.70
2022-10-20T22:28:56.447Z,5.74
2022-10-20T22:32:24.291Z,5.77
2022-10-20T22:35:54.090Z,5.79
2022-10-20T22:39:22.376Z,5.78
2022-10-20T22:42:50.966Z,5.76
2022-10-20T22:46:20.993Z,5.72
2022-10-20T22:49:51.613Z,5.69
2022-10-20T22:53:20.032Z,5.64
2022-10-20T22:56:47.879Z,5.57
2022-10-20T23:00:18.917Z,5.51
2022-10-20T23:03:47.920Z,5.48
2022-10-20T23:07:22.782Z,5.43
2022-10-20T23:11:02.843Z,5.35
2022-10-20T23:14:34.205Z,5.28
2022-10-20T23:18:02.311Z,5.23
2022-10-20T23:21:31.292Z,5.22
2022-10-20T23:25:04.523Z,5.20
2022-10-20T23:28:39.352Z,5.22
2022-10-20T23:32:08.425Z,5.23
2022-10-20T23:35:38.328Z,5.27
2022-10-20T23:39:07.464Z,5.30
2022-10-20T23:42:34.566Z,5.35
2022-10-20T23:46:03.827Z,5.40
2022-10-20T23:49:31.465Z,5.41
2022-10-20T23:52:59.211Z,5.38
2022-10-20T23:56:26.486Z,5.34
2022-10-20T23:59:53.553Z,5.28
